Time;durP1;ratioP1;P1;durP2;ratioP2;P2;SDS_P1;SDS_P2;PMS_P1;PMS_P2;Temp;Humidity;BMP_temperature;BMP_pressure;BME280_temperature;BME280_humidity;BME280_pressure;Samples;Min_cycle;Max_cycle;Signal;HPM_P1;HPM_P2
2023/04/12 00:01:40;;;;;;;8.87;7.70;;;;;;;;;;5072380;28;20198;-84
2023/04/12 00:04:08;;;;;;;12.53;9.57;;;;;;;;;;5071986;28;20198;-84
2023/04/12 00:06:39;;;;;;;12.33;10.50;;;;;;;;;;5072180;28;20216;-84
2023/04/12 00:09:08;;;;;;;11.07;9.80;;;;;;;;;;5071938;28;20196;-85
2023/04/12 00:11:37;;;;;;;12.47;8.17;;;;;;;;;;5071801;28;20295;-84
2023/04/12 00:14:06;;;;;;;11.67;7.47;;;;;;;;;;5072282;28;20195;-84
2023/04/12 00:16:37;;;;;;;9.40;6.40;;;;;;;;;;5071939;28;20295;-83
2023/04/12 00:19:05;;;;;;;9.87;6.47;;;;;;;;;;5071889;28;20220;-84
2023/04/12 00:21:34;;;;;;;7.27;6.27;;;;;;;;;;5071798;28;20195;-84
2023/04/12 00:24:03;;;;;;;9.73;6.60;;;;;;;;;;5071603;28;20198;-84
2023/04/12 00:26:31;;;;;;;8.10;6.40;;;;;;;;;;5071495;28;20226;-84
2023/04/12 00:29:01;;;;;;;8.43;6.73;;;;;;;;;;5071821;28;20206;-84
2023/04/12 00:31:30;;;;;;;8.23;6.47;;;;;;;;;;5071689;28;20239;-84
2023/04/12 00:33:58;;;;;;;10.43;6.73;;;;;;;;;;5071620;28;20199;-84
2023/04/12 00:36:27;;;;;;;8.33;6.43;;;;;;;;;;5071213;28;20242;-84
2023/04/12 00:38:55;;;;;;;6.60;5.90;;;;;;;;;;5071313;28;20234;-84
2023/04/12 00:41:24;;;;;;;9.37;6.33;;;;;;;;;;5071379;28;20201;-84
2023/04/12 00:43:52;;;;;;;9.70;8.70;;;;;;;;;;5071308;28;20191;-84
2023/04/12 00:46:22;;;;;;;8.23;7.30;;;;;;;;;;5072137;28;20228;-84
2023/04/12 00:48:51;;;;;;;5.90;5.30;;;;;;;;;;5071302;28;20211;-84
2023/04/12 00:51:21;;;;;;;11.23;7.13;;;;;;;;;;5071507;28;20309;-84
2023/04/12 00:53:50;;;;;;;10.90;6.70;;;;;;;;;;5071424;28;20256;-85
2023/04/12 00:56:18;;;;;;;7.33;6.40;;;;;;;;;;5071277;28;20209;-84
2023/04/12 00:58:47;;;;;;;9.13;8.23;;;;;;;;;;5071724;28;20203;-84
2023/04/12 01:01:18;;;;;;;8.43;6.40;;;;;;;;;;5071467;28;20202;-84
2023/04/12 01:03:49;;;;;;;9.50;6.77;;;;;;;;;;5071169;28;20285;-84
2023/04/12 01:06:28;;;;;;;8.87;6.77;;;;;;;;;;5071174;28;20209;-84
2023/04/12 01:09:02;;;;;;;7.57;5.13;;;;;;;;;;5071368;28;20204;-84
2023/04/12 01:11:32;;;;;;;13.10;7.70;;;;;;;;;;5071128;28;20221;-84
2023/04/12 01:14:06;;;;;;;8.40;4.80;;;;;;;;;;5071396;28;20230;-84
2023/04/12 01:16:39;;;;;;;7.80;6.50;;;;;;;;;;5071235;28;20309;-84
2023/04/12 01:19:27;;;;;;;7.93;5.97;;;;;;;;;;5070969;28;20268;-84
2023/04/12 01:22:17;;;;;;;6.87;6.17;;;;;;;;;;5071036;28;20202;-84
2023/04/12 01:24:52;;;;;;;6.03;5.43;;;;;;;;;;5070990;28;20199;-84
2023/04/12 01:27:32;;;;;;;5.40;3.80;;;;;;;;;;5070795;28;20219;-84
2023/04/12 01:30:02;;;;;;;6.83;6.00;;;;;;;;;;5071069;28;20234;-84
2023/04/12 01:32:31;;;;;;;6.93;6.27;;;;;;;;;;5070652;28;20217;-84
2023/04/12 01:35:01;;;;;;;8.03;5.83;;;;;;;;;;5073081;28;20202;-85
2023/04/12 01:37:30;;;;;;;7.13;6.30;;;;;;;;;;5074729;28;20248;-84
2023/04/12 01:39:58;;;;;;;7.57;6.00;;;;;;;;;;5074942;28;20206;-84
2023/04/12 01:42:28;;;;;;;6.67;5.33;;;;;;;;;;5074475;28;20252;-84
2023/04/12 01:44:56;;;;;;;6.60;5.40;;;;;;;;;;5074638;28;20296;-84
2023/04/12 01:47:25;;;;;;;3.97;3.63;;;;;;;;;;5074705;28;20195;-84
2023/04/12 01:50:00;;;;;;;5.90;5.27;;;;;;;;;;5075350;28;20202;-84
2023/04/12 01:52:31;;;;;;;8.43;6.87;;;;;;;;;;5074882;28;20252;-84
2023/04/12 01:55:01;;;;;;;6.30;4.90;;;;;;;;;;5074222;28;20244;-84
2023/04/12 01:57:31;;;;;;;6.73;4.63;;;;;;;;;;5074547;28;20225;-84
2023/04/12 02:00:01;;;;;;;6.53;4.13;;;;;;;;;;5074398;28;20200;-84
2023/04/12 02:02:29;;;;;;;6.37;4.77;;;;;;;;;;5074520;28;20245;-84
2023/04/12 02:04:59;;;;;;;8.03;5.30;;;;;;;;;;5074316;28;20237;-84
2023/04/12 02:07:28;;;;;;;7.53;4.80;;;;;;;;;;5074284;28;20290;-84
2023/04/12 02:09:57;;;;;;;4.17;3.53;;;;;;;;;;5074316;28;20198;-84
2023/04/12 02:12:25;;;;;;;6.43;4.50;;;;;;;;;;5074340;28;20218;-84
2023/04/12 02:14:57;;;;;;;8.40;4.57;;;;;;;;;;5074113;28;20300;-84
2023/04/12 02:17:25;;;;;;;4.10;3.70;;;;;;;;;;5074507;28;20227;-84
2023/04/12 02:19:54;;;;;;;3.23;2.83;;;;;;;;;;5074045;28;20215;-84
2023/04/12 02:22:22;;;;;;;4.40;3.20;;;;;;;;;;5073665;28;20191;-84
2023/04/12 02:24:50;;;;;;;4.70;3.97;;;;;;;;;;5074367;28;20231;-84
2023/04/12 02:27:20;;;;;;;5.17;3.87;;;;;;;;;;5074419;28;20233;-83
2023/04/12 02:29:48;;;;;;;3.83;3.17;;;;;;;;;;5073986;28;20198;-84
2023/04/12 02:32:18;;;;;;;7.53;4.80;;;;;;;;;;5073778;28;20389;-84
2023/04/12 02:34:50;;;;;;;5.07;3.80;;;;;;;;;;5073889;28;20199;-83
2023/04/12 02:37:20;;;;;;;4.30;3.90;;;;;;;;;;5073515;28;20195;-84
2023/04/12 02:39:49;;;;;;;6.87;3.60;;;;;;;;;;5073718;28;20219;-84
2023/04/12 02:42:17;;;;;;;4.43;3.87;;;;;;;;;;5074012;28;20244;-84
2023/04/12 02:44:46;;;;;;;4.53;4.00;;;;;;;;;;5073864;28;20195;-84
2023/04/12 02:47:15;;;;;;;8.90;4.43;;;;;;;;;;5072852;28;20225;-84
2023/04/12 02:49:44;;;;;;;5.93;5.33;;;;;;;;;;5073749;28;20400;-84
2023/04/12 02:52:13;;;;;;;7.33;4.70;;;;;;;;;;5073358;28;20234;-84
2023/04/12 02:54:42;;;;;;;5.83;4.47;;;;;;;;;;5073663;28;20239;-84
2023/04/12 02:57:11;;;;;;;4.27;3.60;;;;;;;;;;5073725;28;20234;-84
2023/04/12 02:59:40;;;;;;;4.87;3.83;;;;;;;;;;5073213;28;20207;-84
2023/04/12 03:02:08;;;;;;;5.53;4.67;;;;;;;;;;5073734;28;20202;-84
2023/04/12 03:04:38;;;;;;;6.63;3.87;;;;;;;;;;5073349;28;20199;-84
2023/04/12 03:07:09;;;;;;;5.87;4.37;;;;;;;;;;5073205;28;20199;-84
2023/04/12 03:09:41;;;;;;;5.77;3.97;;;;;;;;;;5073249;28;20267;-84
2023/04/12 03:12:09;;;;;;;5.40;4.90;;;;;;;;;;5073511;28;20213;-84
2023/04/12 03:14:38;;;;;;;7.73;4.90;;;;;;;;;;5073323;28;20237;-84
2023/04/12 03:17:06;;;;;;;6.57;4.40;;;;;;;;;;5073206;28;20251;-84
2023/04/12 03:19:35;;;;;;;5.53;4.73;;;;;;;;;;5073293;28;20251;-84
2023/04/12 03:22:04;;;;;;;5.30;4.70;;;;;;;;;;5073061;28;20199;-84
2023/04/12 03:24:36;;;;;;;7.97;5.07;;;;;;;;;;5073319;28;20257;-84
2023/04/12 03:27:05;;;;;;;5.53;4.97;;;;;;;;;;5073626;28;20218;-84
2023/04/12 03:29:34;;;;;;;6.00;4.60;;;;;;;;;;5072696;28;20253;-84
2023/04/12 03:32:02;;;;;;;7.83;4.93;;;;;;;;;;5072790;28;20226;-83
2023/04/12 03:34:31;;;;;;;4.30;3.63;;;;;;;;;;5072824;28;20194;-83
2023/04/12 03:37:00;;;;;;;4.13;3.43;;;;;;;;;;5072850;28;20268;-84
2023/04/12 03:39:28;;;;;;;5.83;5.23;;;;;;;;;;5071988;28;20234;-84
2023/04/12 03:41:58;;;;;;;4.37;3.93;;;;;;;;;;5072715;28;20270;-84
2023/04/12 03:44:26;;;;;;;4.97;4.20;;;;;;;;;;5072497;28;20235;-84
2023/04/12 03:46:55;;;;;;;6.63;4.80;;;;;;;;;;5072481;28;20227;-85
2023/04/12 03:49:23;;;;;;;5.80;4.73;;;;;;;;;;5072457;28;20262;-84
2023/04/12 03:51:52;;;;;;;6.23;5.57;;;;;;;;;;5072404;28;20193;-84
2023/04/12 03:54:20;;;;;;;6.40;5.57;;;;;;;;;;5072493;28;20198;-84
2023/04/12 03:56:49;;;;;;;6.37;4.33;;;;;;;;;;5072160;28;20233;-84
2023/04/12 03:59:19;;;;;;;7.70;6.97;;;;;;;;;;5072465;28;20202;-84
2023/04/12 04:01:47;;;;;;;7.43;6.70;;;;;;;;;;5071907;28;20252;-84
2023/04/12 04:04:16;;;;;;;6.27;5.67;;;;;;;;;;5072001;28;20255;-83
2023/04/12 04:06:45;;;;;;;8.60;6.90;;;;;;;;;;5072174;28;20210;-84
2023/04/12 04:09:15;;;;;;;7.83;7.13;;;;;;;;;;5071902;28;20203;-84
2023/04/12 04:11:44;;;;;;;7.37;6.17;;;;;;;;;;5072007;28;20297;-84
2023/04/12 04:14:12;;;;;;;6.43;5.83;;;;;;;;;;5071786;28;20326;-84
2023/04/12 04:16:42;;;;;;;6.10;5.50;;;;;;;;;;5071821;28;20235;-84
2023/04/12 04:19:10;;;;;;;6.87;6.27;;;;;;;;;;5071957;28;20218;-84
2023/04/12 04:21:39;;;;;;;9.10;5.03;;;;;;;;;;5072353;28;20242;-84
2023/04/12 04:24:10;;;;;;;6.83;6.03;;;;;;;;;;5071928;28;20196;-84
2023/04/12 04:26:38;;;;;;;5.20;4.53;;;;;;;;;;5071971;28;20223;-85
2023/04/12 04:29:07;;;;;;;7.73;5.27;;;;;;;;;;5071583;28;20236;-84
2023/04/12 04:31:36;;;;;;;4.23;3.83;;;;;;;;;;5071537;28;20298;-84
2023/04/12 04:34:07;;;;;;;4.67;3.67;;;;;;;;;;5071861;28;20225;-84
2023/04/12 04:36:38;;;;;;;4.20;3.80;;;;;;;;;;5071451;28;20257;-84
2023/04/12 04:39:07;;;;;;;7.53;5.20;;;;;;;;;;5071285;28;20284;-84
2023/04/12 04:41:38;;;;;;;6.20;5.60;;;;;;;;;;5071195;28;20201;-84
2023/04/12 04:44:09;;;;;;;6.20;5.60;;;;;;;;;;5071833;28;20285;-85
2023/04/12 04:46:38;;;;;;;4.67;3.57;;;;;;;;;;5071889;28;20218;-84
2023/04/12 04:49:08;;;;;;;6.10;4.53;;;;;;;;;;5071692;28;20297;-84
2023/04/12 04:51:36;;;;;;;7.87;5.17;;;;;;;;;;5071694;28;20259;-84
2023/04/12 04:54:05;;;;;;;6.07;5.13;;;;;;;;;;5071445;28;20226;-84
2023/04/12 04:56:34;;;;;;;7.00;6.40;;;;;;;;;;5071621;28;20193;-84
2023/04/12 04:59:02;;;;;;;6.80;6.20;;;;;;;;;;5071821;28;20201;-85
2023/04/12 05:01:34;;;;;;;7.70;6.23;;;;;;;;;;5071219;28;20219;-84
2023/04/12 05:04:03;;;;;;;6.23;5.67;;;;;;;;;;5071180;28;20220;-84
2023/04/12 05:06:33;;;;;;;5.90;5.17;;;;;;;;;;5071152;28;20235;-84
2023/04/12 05:09:04;;;;;;;5.07;4.47;;;;;;;;;;5070348;28;20298;-84
2023/04/12 05:11:32;;;;;;;6.70;6.10;;;;;;;;;;5070829;28;20204;-84
2023/04/12 05:14:00;;;;;;;4.90;4.50;;;;;;;;;;5071197;28;20228;-84
2023/04/12 05:16:29;;;;;;;6.20;5.67;;;;;;;;;;5071416;28;20268;-85
2023/04/12 05:18:57;;;;;;;7.33;4.87;;;;;;;;;;5071026;28;20205;-84
2023/04/12 05:21:30;;;;;;;6.47;5.83;;;;;;;;;;5071088;28;20199;-84
2023/04/12 05:24:00;;;;;;;6.00;5.40;;;;;;;;;;5071423;28;20242;-84
2023/04/12 05:26:28;;;;;;;5.33;4.83;;;;;;;;;;5070841;28;20204;-85
2023/04/12 05:28:57;;;;;;;4.20;3.70;;;;;;;;;;5071179;28;20265;-84
2023/04/12 05:31:26;;;;;;;5.33;4.70;;;;;;;;;;5071188;28;20204;-83
2023/04/12 05:33:55;;;;;;;8.17;5.67;;;;;;;;;;5070401;28;20214;-83
2023/04/12 05:36:23;;;;;;;11.53;7.63;;;;;;;;;;5071534;28;20298;-87
2023/04/12 05:38:51;;;;;;;6.03;4.37;;;;;;;;;;5071566;28;20254;-87
2023/04/12 05:41:21;;;;;;;1.77;1.67;;;;;;;;;;5071419;28;20208;-85
2023/04/12 05:43:50;;;;;;;4.90;3.33;;;;;;;;;;5072401;28;20280;-86
2023/04/12 05:46:18;;;;;;;2.63;2.17;;;;;;;;;;5073056;28;20204;-85
2023/04/12 05:48:46;;;;;;;1.87;1.77;;;;;;;;;;5072334;28;20208;-85
2023/04/12 05:51:15;;;;;;;19.80;2.83;;;;;;;;;;5072788;28;20211;-85
2023/04/12 05:53:48;;;;;;;2.70;2.23;;;;;;;;;;5072651;28;20220;-86
2023/04/12 05:56:16;;;;;;;4.37;2.00;;;;;;;;;;5072233;28;20204;-86
2023/04/12 05:58:47;;;;;;;7.77;4.40;;;;;;;;;;5071716;28;20225;-85
2023/04/12 06:01:18;;;;;;;10.80;5.47;;;;;;;;;;5072553;28;20204;-85
2023/04/12 06:03:46;;;;;;;2.17;1.77;;;;;;;;;;5071911;28;20190;-85
2023/04/12 06:06:15;;;;;;;3.87;2.43;;;;;;;;;;5072017;28;20200;-85
2023/04/12 06:08:43;;;;;;;6.43;1.80;;;;;;;;;;5072212;28;20228;-84
2023/04/12 06:11:12;;;;;;;11.97;4.37;;;;;;;;;;5071754;28;20219;-83
2023/04/12 06:13:40;;;;;;;1.80;1.50;;;;;;;;;;5070586;28;20243;-83
2023/04/12 06:16:11;;;;;;;5.30;2.80;;;;;;;;;;5070639;28;20232;-83
2023/04/12 06:18:40;;;;;;;1.03;1.03;;;;;;;;;;5070942;28;20200;-83
2023/04/12 06:21:08;;;;;;;1.27;1.27;;;;;;;;;;5072478;28;20242;-83
2023/04/12 06:23:36;;;;;;;1.03;1.03;;;;;;;;;;5073888;28;20204;-84
2023/04/12 06:26:05;;;;;;;4.20;2.73;;;;;;;;;;5074160;28;20207;-83
2023/04/12 06:28:33;;;;;;;13.50;2.20;;;;;;;;;;5074061;28;20282;-83
2023/04/12 06:31:02;;;;;;;9.10;3.03;;;;;;;;;;5074923;28;20209;-84
2023/04/12 06:33:32;;;;;;;4.50;2.30;;;;;;;;;;5074506;28;20193;-84
2023/04/12 06:36:01;;;;;;;5.63;1.70;;;;;;;;;;5074491;28;20201;-84
2023/04/12 06:38:29;;;;;;;6.03;1.83;;;;;;;;;;5074136;28;20236;-84
2023/04/12 06:40:58;;;;;;;7.07;2.50;;;;;;;;;;5074469;28;20226;-84
2023/04/12 06:43:26;;;;;;;1.60;1.33;;;;;;;;;;5074039;28;20221;-84
2023/04/12 06:45:55;;;;;;;9.57;2.67;;;;;;;;;;5074091;28;20208;-83
2023/04/12 06:48:24;;;;;;;2.77;2.57;;;;;;;;;;5073852;28;20210;-84
2023/04/12 06:50:54;;;;;;;12.90;4.63;;;;;;;;;;5073509;28;20204;-83
2023/04/12 06:53:22;;;;;;;5.90;2.97;;;;;;;;;;5074247;28;20240;-84
2023/04/12 06:55:52;;;;;;;14.13;2.77;;;;;;;;;;5073863;28;20222;-84
2023/04/12 06:58:21;;;;;;;6.37;2.60;;;;;;;;;;5073630;28;20209;-85
2023/04/12 07:00:49;;;;;;;14.63;4.73;;;;;;;;;;5073786;28;20205;-84
2023/04/12 07:03:18;;;;;;;6.53;1.93;;;;;;;;;;5074901;28;20266;-84
2023/04/12 07:05:47;;;;;;;9.83;2.70;;;;;;;;;;5074225;28;20262;-84
2023/04/12 07:08:16;;;;;;;4.63;4.20;;;;;;;;;;5074170;28;20214;-84
2023/04/12 07:10:45;;;;;;;1.27;1.03;;;;;;;;;;5074395;28;20332;-84
2023/04/12 07:13:13;;;;;;;4.40;2.27;;;;;;;;;;5073495;28;20293;-84
2023/04/12 07:15:42;;;;;;;7.03;2.33;;;;;;;;;;5073647;28;20217;-84
2023/04/12 07:18:10;;;;;;;5.50;2.50;;;;;;;;;;5074101;28;20233;-84
2023/04/12 07:20:39;;;;;;;3.20;2.20;;;;;;;;;;5073834;28;20236;-84
2023/04/12 07:23:07;;;;;;;10.20;3.77;;;;;;;;;;5073665;28;20237;-84
2023/04/12 07:25:39;;;;;;;7.07;2.00;;;;;;;;;;5074418;28;20194;-84
2023/04/12 07:28:07;;;;;;;3.13;1.70;;;;;;;;;;5074134;28;20280;-84
2023/04/12 07:30:36;;;;;;;3.90;2.43;;;;;;;;;;5073643;28;20198;-84
2023/04/12 07:33:05;;;;;;;1.07;1.03;;;;;;;;;;5073482;28;20193;-84
2023/04/12 07:35:46;;;;;;;10.93;3.27;;;;;;;;;;5073780;28;20251;-85
2023/04/12 07:38:15;;;;;;;3.97;1.57;;;;;;;;;;5073497;28;20244;-84
2023/04/12 07:40:45;;;;;;;7.63;2.40;;;;;;;;;;5074089;28;20296;-85
2023/04/12 07:43:17;;;;;;;10.20;2.13;;;;;;;;;;5074206;28;20236;-84
2023/04/12 07:45:45;;;;;;;10.67;4.50;;;;;;;;;;5073418;28;20206;-84
2023/04/12 07:48:14;;;;;;;10.73;2.63;;;;;;;;;;5072449;28;20248;-84
2023/04/12 07:50:43;;;;;;;6.43;2.53;;;;;;;;;;5072782;28;20288;-84
2023/04/12 07:53:21;;;;;;;10.93;4.40;;;;;;;;;;5071918;28;20225;-84
2023/04/12 07:55:51;;;;;;;7.13;3.30;;;;;;;;;;5072782;28;20218;-85
2023/04/12 07:58:20;;;;;;;3.67;2.23;;;;;;;;;;5072660;28;20229;-84
2023/04/12 08:00:49;;;;;;;1.73;1.63;;;;;;;;;;5072112;28;20205;-84
2023/04/12 08:03:18;;;;;;;8.73;2.00;;;;;;;;;;5072300;28;20206;-84
2023/04/12 08:05:52;;;;;;;6.00;4.00;;;;;;;;;;5072067;28;20204;-84
2023/04/12 08:08:21;;;;;;;4.17;1.33;;;;;;;;;;5071689;28;20208;-84
2023/04/12 08:10:51;;;;;;;7.20;2.93;;;;;;;;;;5072737;28;20206;-84
2023/04/12 08:13:20;;;;;;;3.47;1.87;;;;;;;;;;5071857;28;20190;-84
2023/04/12 08:15:48;;;;;;;3.97;1.40;;;;;;;;;;5071820;28;20313;-84
2023/04/12 08:18:17;;;;;;;1.50;1.37;;;;;;;;;;5071653;28;20200;-84
2023/04/12 08:20:48;;;;;;;0.70;0.70;;;;;;;;;;5072009;28;20228;-84
2023/04/12 08:23:16;;;;;;;3.17;1.70;;;;;;;;;;5072085;28;20259;-84
2023/04/12 08:25:44;;;;;;;12.27;2.67;;;;;;;;;;5072187;28;20189;-83
2023/04/12 08:28:15;;;;;;;1.17;1.07;;;;;;;;;;5071591;28;20245;-83
2023/04/12 08:30:44;;;;;;;6.47;2.33;;;;;;;;;;5071470;28;20251;-84
2023/04/12 08:33:12;;;;;;;2.03;1.00;;;;;;;;;;5071604;28;20201;-84
2023/04/12 08:35:41;;;;;;;4.33;1.37;;;;;;;;;;5071775;28;20217;-84
2023/04/12 08:38:09;;;;;;;6.10;1.37;;;;;;;;;;5071573;28;20216;-84
2023/04/12 08:40:38;;;;;;;3.47;1.90;;;;;;;;;;5071233;28;20238;-84
2023/04/12 08:43:08;;;;;;;3.03;1.57;;;;;;;;;;5072052;28;20190;-84
2023/04/12 08:45:38;;;;;;;7.80;1.67;;;;;;;;;;5071422;28;20202;-84
2023/04/12 08:48:07;;;;;;;8.33;2.20;;;;;;;;;;5071744;28;20288;-83
2023/04/12 08:50:35;;;;;;;3.77;1.27;;;;;;;;;;5071337;28;20221;-84
2023/04/12 08:53:04;;;;;;;4.17;2.37;;;;;;;;;;5071446;28;20650;-84
2023/04/12 08:55:32;;;;;;;13.40;2.37;;;;;;;;;;5071183;28;20248;-84
2023/04/12 08:58:06;;;;;;;3.90;1.53;;;;;;;;;;5071469;28;20214;-84
2023/04/12 09:00:34;;;;;;;1.40;1.30;;;;;;;;;;5071385;28;20194;-84
2023/04/12 09:03:04;;;;;;;2.00;1.67;;;;;;;;;;5071292;28;20267;-84
2023/04/12 09:05:33;;;;;;;10.93;2.50;;;;;;;;;;5071391;28;20197;-85
2023/04/12 09:08:01;;;;;;;5.30;1.97;;;;;;;;;;5071091;28;20237;-84
2023/04/12 09:10:33;;;;;;;8.03;1.20;;;;;;;;;;5070762;28;20190;-84
2023/04/12 09:13:02;;;;;;;3.80;2.10;;;;;;;;;;5070882;28;20198;-83
2023/04/12 09:15:31;;;;;;;2.33;1.73;;;;;;;;;;5070948;28;20245;-84
2023/04/12 09:18:07;;;;;;;3.83;1.97;;;;;;;;;;5071287;28;20268;-84
2023/04/12 09:20:36;;;;;;;4.43;2.20;;;;;;;;;;5071458;28;20202;-84
2023/04/12 09:23:17;;;;;;;2.53;2.33;;;;;;;;;;5071154;28;20202;-85
2023/04/12 09:25:47;;;;;;;9.10;4.07;;;;;;;;;;5071016;28;20193;-85
2023/04/12 09:28:19;;;;;;;2.17;1.43;;;;;;;;;;5071332;28;20226;-80
2023/04/12 09:30:50;;;;;;;5.10;1.93;;;;;;;;;;5070901;28;20201;-85
2023/04/12 09:33:21;;;;;;;3.50;1.33;;;;;;;;;;5070932;28;20198;-84
2023/04/12 09:35:50;;;;;;;4.03;1.57;;;;;;;;;;5070974;28;20304;-86
2023/04/12 09:38:19;;;;;;;7.83;2.10;;;;;;;;;;5070856;28;20241;-84
2023/04/12 09:40:48;;;;;;;5.83;1.60;;;;;;;;;;5070284;28;20201;-84
2023/04/12 09:43:17;;;;;;;2.40;1.30;;;;;;;;;;5071511;28;20263;-84
2023/04/12 09:45:45;;;;;;;5.30;2.37;;;;;;;;;;5071209;28;20198;-85
2023/04/12 09:48:19;;;;;;;2.70;1.90;;;;;;;;;;5070389;28;20292;-85
2023/04/12 09:50:49;;;;;;;1.30;1.23;;;;;;;;;;5070671;28;20205;-85
2023/04/12 09:53:18;;;;;;;7.00;2.00;;;;;;;;;;5070668;28;20249;-84
2023/04/12 09:55:47;;;;;;;1.97;1.53;;;;;;;;;;5072055;28;20272;-84
2023/04/12 09:58:20;;;;;;;5.80;2.20;;;;;;;;;;5074777;28;20228;-84
2023/04/12 10:00:49;;;;;;;7.67;2.40;;;;;;;;;;5075139;28;20269;-85
2023/04/12 10:03:19;;;;;;;3.47;2.60;;;;;;;;;;5074356;28;20212;-84
2023/04/12 10:05:47;;;;;;;14.47;2.13;;;;;;;;;;5074502;28;20189;-85
2023/04/12 10:08:17;;;;;;;4.27;2.40;;;;;;;;;;5074198;28;20228;-85
2023/04/12 10:10:46;;;;;;;6.53;3.37;;;;;;;;;;5074253;28;20205;-84
2023/04/12 10:13:15;;;;;;;15.33;1.97;;;;;;;;;;5074618;28;20198;-85
2023/04/12 10:15:46;;;;;;;10.57;2.27;;;;;;;;;;5074112;28;20226;-85
2023/04/12 10:18:15;;;;;;;7.87;2.67;;;;;;;;;;5074350;28;20220;-85
2023/04/12 10:20:43;;;;;;;5.67;2.00;;;;;;;;;;5073792;28;20186;-85
2023/04/12 10:23:12;;;;;;;4.33;2.33;;;;;;;;;;5074078;28;20209;-85
2023/04/12 10:25:43;;;;;;;9.00;3.03;;;;;;;;;;5074428;28;20260;-85
2023/04/12 10:28:15;;;;;;;6.20;2.07;;;;;;;;;;5074029;28;20218;-85
2023/04/12 10:30:43;;;;;;;15.30;3.90;;;;;;;;;;5074571;28;20198;-85
2023/04/12 10:33:16;;;;;;;13.53;4.07;;;;;;;;;;5073799;28;20216;-84
2023/04/12 10:35:55;;;;;;;2.73;1.43;;;;;;;;;;5073841;28;20198;-85
2023/04/12 10:38:25;;;;;;;2.90;1.90;;;;;;;;;;5074075;28;20194;-85
2023/04/12 10:41:12;;;;;;;5.00;2.00;;;;;;;;;;5073771;28;20194;-85
2023/04/12 10:43:41;;;;;;;5.23;3.43;;;;;;;;;;5073997;28;20202;-86
2023/04/12 10:46:09;;;;;;;4.53;1.03;;;;;;;;;;5073890;28;20202;-85
2023/04/12 10:48:38;;;;;;;5.27;1.73;;;;;;;;;;5073734;28;20271;-86
2023/04/12 10:51:21;;;;;;;8.40;2.10;;;;;;;;;;5073697;28;20202;-85
2023/04/12 10:53:51;;;;;;;6.70;2.83;;;;;;;;;;5073636;28;20201;-85
2023/04/12 10:56:40;;;;;;;7.63;2.13;;;;;;;;;;5073811;28;20250;-85
2023/04/12 10:59:09;;;;;;;8.03;2.13;;;;;;;;;;5073686;28;20202;-85
2023/04/12 11:01:38;;;;;;;7.90;2.53;;;;;;;;;;5073879;28;20207;-85
2023/04/12 11:04:08;;;;;;;10.40;3.67;;;;;;;;;;5073578;28;20201;-85
2023/04/12 11:07:00;;;;;;;5.20;2.13;;;;;;;;;;5072575;28;20255;-86
2023/04/12 11:09:29;;;;;;;6.77;2.50;;;;;;;;;;5073917;28;20203;-85
2023/04/12 11:12:11;;;;;;;2.97;1.17;;;;;;;;;;5073261;28;20209;-85
2023/04/12 11:14:44;;;;;;;6.53;2.97;;;;;;;;;;5073462;28;20208;-85
2023/04/12 11:17:22;;;;;;;9.03;2.13;;;;;;;;;;5073390;28;20281;-85
2023/04/12 11:19:56;;;;;;;3.53;2.20;;;;;;;;;;5072903;28;20284;-85
2023/04/12 11:22:26;;;;;;;5.70;2.63;;;;;;;;;;5073352;28;20213;-85
2023/04/12 11:24:55;;;;;;;3.87;1.20;;;;;;;;;;5073147;28;20216;-85
2023/04/12 11:27:26;;;;;;;5.97;2.13;;;;;;;;;;5073037;28;20223;-85
2023/04/12 11:29:55;;;;;;;6.40;2.20;;;;;;;;;;5073332;28;20276;-85
2023/04/12 11:32:26;;;;;;;11.33;2.47;;;;;;;;;;5073515;28;20198;-85
2023/04/12 11:34:55;;;;;;;6.67;1.70;;;;;;;;;;5073103;28;20203;-85
2023/04/12 11:37:25;;;;;;;6.00;2.37;;;;;;;;;;5072834;28;20321;-85
2023/04/12 11:39:56;;;;;;;7.00;2.00;;;;;;;;;;5072810;28;20249;-85
2023/04/12 11:42:26;;;;;;;3.73;2.43;;;;;;;;;;5073772;28;20207;-85
2023/04/12 11:44:55;;;;;;;5.30;2.73;;;;;;;;;;5074758;28;20237;-85
2023/04/12 11:47:29;;;;;;;3.07;1.60;;;;;;;;;;5074158;28;20199;-85
2023/04/12 11:49:58;;;;;;;8.23;1.73;;;;;;;;;;5074111;28;20213;-85
2023/04/12 11:52:29;;;;;;;9.50;2.63;;;;;;;;;;5074007;28;20263;-86
2023/04/12 11:54:59;;;;;;;3.23;1.43;;;;;;;;;;5073495;28;20257;-84
2023/04/12 11:57:29;;;;;;;7.20;2.83;;;;;;;;;;5073261;28;20231;-85
2023/04/12 11:59:59;;;;;;;5.93;2.07;;;;;;;;;;5073894;28;20209;-84
2023/04/12 12:02:28;;;;;;;7.70;1.80;;;;;;;;;;5074599;28;20208;-85
2023/04/12 12:05:03;;;;;;;7.77;3.00;;;;;;;;;;5073942;28;20225;-85
2023/04/12 12:07:33;;;;;;;7.77;2.90;;;;;;;;;;5073927;28;20240;-85
2023/04/12 12:10:02;;;;;;;9.80;2.43;;;;;;;;;;5072906;28;20225;-84
2023/04/12 12:12:34;;;;;;;6.37;2.77;;;;;;;;;;5072706;28;20225;-85
2023/04/12 12:15:03;;;;;;;8.17;4.23;;;;;;;;;;5072262;28;20341;-85
2023/04/12 12:17:36;;;;;;;9.53;2.03;;;;;;;;;;5072356;28;20314;-85
2023/04/12 12:20:05;;;;;;;5.40;2.73;;;;;;;;;;5072356;28;20233;-85
2023/04/12 12:22:34;;;;;;;4.70;1.87;;;;;;;;;;5071893;28;20205;-85
2023/04/12 12:25:03;;;;;;;2.50;1.63;;;;;;;;;;5072674;28;20209;-84
2023/04/12 12:27:36;;;;;;;4.63;1.57;;;;;;;;;;5072118;28;20222;-85
2023/04/12 12:30:05;;;;;;;5.20;2.33;;;;;;;;;;5072298;28;20293;-85
2023/04/12 12:32:35;;;;;;;2.07;1.60;;;;;;;;;;5072437;28;20194;-84
2023/04/12 12:35:09;;;;;;;4.10;2.10;;;;;;;;;;5072488;28;20238;-85
2023/04/12 12:37:37;;;;;;;16.27;2.67;;;;;;;;;;5072186;28;20211;-84
2023/04/12 12:40:10;;;;;;;7.30;2.10;;;;;;;;;;5072420;28;20256;-85
2023/04/12 12:42:46;;;;;;;5.60;2.03;;;;;;;;;;5072274;28;20197;-84
2023/04/12 12:45:14;;;;;;;3.73;1.60;;;;;;;;;;5071754;28;20228;-85
2023/04/12 12:47:46;;;;;;;1.13;1.10;;;;;;;;;;5072513;28;20293;-84
2023/04/12 12:50:16;;;;;;;2.67;2.10;;;;;;;;;;5072181;28;20256;-84
2023/04/12 12:52:45;;;;;;;5.83;1.87;;;;;;;;;;5071662;28;20226;-84
2023/04/12 12:55:14;;;;;;;3.20;1.60;;;;;;;;;;5072296;28;20225;-84
2023/04/12 12:57:43;;;;;;;3.87;1.73;;;;;;;;;;5072058;28;20255;-84
2023/04/12 13:00:19;;;;;;;2.37;1.57;;;;;;;;;;5071490;28;20227;-84
2023/04/12 13:02:48;;;;;;;7.80;2.20;;;;;;;;;;5071934;28;20198;-84
2023/04/12 13:05:17;;;;;;;4.70;1.97;;;;;;;;;;5072078;28;20198;-84
2023/04/12 13:07:46;;;;;;;6.33;2.00;;;;;;;;;;5071608;28;20204;-84
2023/04/12 13:10:14;;;;;;;6.63;3.47;;;;;;;;;;5071269;28;20198;-84
2023/04/12 13:12:43;;;;;;;17.10;2.00;;;;;;;;;;5071508;28;20208;-84
2023/04/12 13:15:12;;;;;;;6.23;2.00;;;;;;;;;;5071205;28;20236;-84
2023/04/12 13:17:52;;;;;;;1.00;1.00;;;;;;;;;;5071394;28;20245;-84
2023/04/12 13:20:21;;;;;;;2.23;1.07;;;;;;;;;;5071371;28;20202;-86
2023/04/12 13:22:51;;;;;;;2.23;1.27;;;;;;;;;;5071213;28;20209;-86
2023/04/12 13:25:20;;;;;;;7.77;1.40;;;;;;;;;;5070915;28;20193;-87
2023/04/12 13:27:49;;;;;;;5.23;1.40;;;;;;;;;;5071062;28;20266;-87
2023/04/12 13:30:18;;;;;;;1.37;1.30;;;;;;;;;;5071827;28;20273;-87
2023/04/12 13:32:47;;;;;;;5.10;2.83;;;;;;;;;;5075117;28;20209;-87
2023/04/12 13:35:17;;;;;;;6.60;3.00;;;;;;;;;;5075345;28;20304;-87
2023/04/12 13:37:45;;;;;;;4.77;2.37;;;;;;;;;;5074899;28;20221;-87
2023/04/12 13:40:14;;;;;;;3.23;1.50;;;;;;;;;;5074741;28;20245;-87
2023/04/12 13:42:43;;;;;;;2.23;2.03;;;;;;;;;;5075131;28;20209;-87
2023/04/12 13:45:12;;;;;;;3.40;1.40;;;;;;;;;;5075732;28;20207;-81
2023/04/12 13:47:41;;;;;;;5.50;2.83;;;;;;;;;;5074574;28;20226;-87
2023/04/12 13:50:10;;;;;;;4.33;1.40;;;;;;;;;;5075011;28;20196;-85
2023/04/12 13:52:40;;;;;;;4.27;1.57;;;;;;;;;;5075543;28;20218;-85
2023/04/12 13:55:09;;;;;;;3.57;1.03;;;;;;;;;;5074397;28;20289;-86
2023/04/12 13:57:37;;;;;;;2.57;1.37;;;;;;;;;;5074756;28;20253;-87
2023/04/12 14:00:07;;;;;;;1.97;1.37;;;;;;;;;;5074771;28;20314;-87
2023/04/12 14:02:35;;;;;;;2.73;1.37;;;;;;;;;;5074228;28;20198;-86
2023/04/12 14:05:04;;;;;;;1.33;1.23;;;;;;;;;;5074752;28;20205;-86
2023/04/12 14:07:33;;;;;;;1.20;1.20;;;;;;;;;;5075376;28;20197;-86
2023/04/12 14:10:03;;;;;;;0.90;0.90;;;;;;;;;;5074111;28;20262;-86
2023/04/12 14:12:32;;;;;;;7.20;2.00;;;;;;;;;;5074645;28;20272;-85
2023/04/12 14:15:01;;;;;;;3.23;1.70;;;;;;;;;;5074669;28;20233;-86
2023/04/12 14:17:31;;;;;;;4.83;1.93;;;;;;;;;;5073864;28;20221;-86
2023/04/12 14:20:00;;;;;;;3.63;1.77;;;;;;;;;;5074195;28;20225;-85
2023/04/12 14:22:29;;;;;;;4.00;2.20;;;;;;;;;;5074761;28;20216;-86
2023/04/12 14:24:57;;;;;;;3.43;1.63;;;;;;;;;;5074092;28;20291;-86
2023/04/12 14:27:27;;;;;;;1.00;1.00;;;;;;;;;;5074578;28;20240;-86
2023/04/12 14:29:55;;;;;;;1.87;1.10;;;;;;;;;;5074616;28;20261;-85
2023/04/12 14:32:24;;;;;;;3.17;1.23;;;;;;;;;;5074182;28;20197;-86
2023/04/12 14:34:53;;;;;;;1.13;1.00;;;;;;;;;;5073940;28;20205;-85
2023/04/12 14:37:21;;;;;;;1.87;1.43;;;;;;;;;;5073880;28;20248;-87
2023/04/12 14:39:50;;;;;;;2.83;1.13;;;;;;;;;;5073552;28;20260;-87
2023/04/12 14:42:19;;;;;;;2.43;1.80;;;;;;;;;;5073810;28;20259;-87
2023/04/12 14:44:49;;;;;;;9.23;1.70;;;;;;;;;;5073591;28;20252;-87
2023/04/12 14:47:17;;;;;;;1.57;0.97;;;;;;;;;;5073596;28;20223;-87
2023/04/12 14:49:46;;;;;;;3.03;1.37;;;;;;;;;;5074267;28;20198;-87
2023/04/12 14:52:14;;;;;;;7.73;2.27;;;;;;;;;;5074273;28;20239;-87
2023/04/12 14:54:43;;;;;;;3.47;1.83;;;;;;;;;;5073927;28;20325;-87
2023/04/12 14:57:11;;;;;;;1.77;1.33;;;;;;;;;;5073877;28;20283;-88